Time;durP1;ratioP1;P1;durP2;ratioP2;P2;SDS_P1;SDS_P2;PMS_P1;PMS_P2;Temp;Humidity;BMP_temperature;BMP_pressure;BME280_temperature;BME280_humidity;BME280_pressure;Samples;Min_cycle;Max_cycle;Signal;HPM_P1;HPM_P2
2023/07/10 00:01:35;;;;;;;9.03;5.23;;;;;;;23.88;76.26;99930.88;12231110;19;20021;-82
2023/07/10 00:05:37;;;;;;;9.73;5.55;;;;;;;23.83;76.62;99926.25;12246790;19;20021;-82
2023/07/10 00:09:39;;;;;;;10.53;4.93;;;;;;;23.79;77.67;99927.25;12241749;19;20010;-82
2023/07/10 00:13:41;;;;;;;8.17;5.50;;;;;;;23.71;78.43;99922.47;12222405;19;20018;-83
2023/07/10 00:17:45;;;;;;;10.60;5.78;;;;;;;23.65;78.46;99921.81;12243738;19;20248;-82
2023/07/10 00:21:47;;;;;;;9.45;5.32;;;;;;;23.64;79.41;99923.78;12241846;19;20006;-84
2023/07/10 00:25:49;;;;;;;11.80;5.40;;;;;;;23.62;79.56;99911.25;12218761;19;20471;-82
2023/07/10 00:29:50;;;;;;;8.10;5.27;;;;;;;23.58;79.86;99902.63;12238974;19;20282;-82
2023/07/10 00:33:53;;;;;;;8.60;5.17;;;;;;;23.53;80.82;99900.00;12242414;19;20268;-83
2023/07/10 00:38:02;;;;;;;12.85;5.78;;;;;;;23.50;81.30;99899.81;12222363;19;20704;-82
2023/07/10 00:42:21;;;;;;;8.85;5.43;;;;;;;23.43;81.68;99901.16;12242218;19;20086;-82
2023/07/10 00:46:34;;;;;;;9.38;5.60;;;;;;;23.36;81.76;99891.59;12219568;19;19999;-81
2023/07/10 00:50:46;;;;;;;9.15;6.03;;;;;;;23.27;82.46;99907.66;12235764;19;20027;-82
2023/07/10 00:54:51;;;;;;;10.02;5.00;;;;;;;23.17;83.32;99912.47;12239355;19;20006;-82
2023/07/10 00:58:53;;;;;;;8.73;5.82;;;;;;;23.07;83.96;99917.59;12217406;19;20610;-82
2023/07/10 01:02:55;;;;;;;9.40;5.27;;;;;;;23.00;84.80;99920.91;12228963;19;20015;-82
2023/07/10 01:06:56;;;;;;;8.70;5.57;;;;;;;22.93;85.46;99918.56;12233332;19;20013;-82
2023/07/10 01:10:59;;;;;;;10.13;6.03;;;;;;;22.88;86.10;99932.75;12198577;19;20015;-82
2023/07/10 01:15:03;;;;;;;11.27;5.88;;;;;;;22.84;86.90;99948.59;12232397;19;20015;-82
2023/07/10 01:19:13;;;;;;;12.13;5.45;;;;;;;22.81;87.15;99962.47;12226626;19;20533;-82
2023/07/10 01:23:18;;;;;;;11.98;5.32;;;;;;;22.74;87.69;99961.00;12233485;19;20697;-82
2023/07/10 01:27:21;;;;;;;7.47;4.90;;;;;;;22.68;88.27;99965.09;12230344;19;20006;-82
2023/07/10 01:31:25;;;;;;;11.27;5.72;;;;;;;22.64;89.34;99966.09;12205124;19;20011;-82
2023/07/10 01:35:30;;;;;;;10.93;5.78;;;;;;;22.60;89.42;99979.13;12230658;19;20010;-82
2023/07/10 01:39:39;;;;;;;9.02;5.72;;;;;;;22.55;89.67;99980.13;12228383;19;20019;-82
2023/07/10 01:43:41;;;;;;;10.75;6.05;;;;;;;22.49;90.77;99989.84;12206792;19;20027;-82
2023/07/10 01:47:43;;;;;;;9.60;5.50;;;;;;;22.44;90.84;99984.38;12227339;19;20007;-82
2023/07/10 01:51:45;;;;;;;10.37;5.60;;;;;;;22.38;91.75;100002.53;12230950;19;20010;-82
2023/07/10 01:55:48;;;;;;;10.30;5.40;;;;;;;22.33;92.39;99994.25;12215474;19;20014;-82
2023/07/10 01:59:51;;;;;;;11.05;5.50;;;;;;;22.29;92.52;99994.88;12225319;19;20006;-82
2023/07/10 02:03:53;;;;;;;10.20;6.10;;;;;;;22.27;93.32;99982.31;12229809;19;20017;-82
2023/07/10 02:07:55;;;;;;;;;;;;;;;22.20;93.12;99977.19;12208135;19;20724;-82
2023/07/10 02:11:57;;;;;;;16.98;5.68;;;;;;;22.17;94.28;99966.59;12230089;19;19930;-82
2023/07/10 02:16:02;;;;;;;8.23;5.40;;;;;;;22.16;95.25;99966.88;12234921;19;20006;-82
2023/07/10 02:20:05;;;;;;;12.50;5.43;;;;;;;22.15;95.29;99971.66;12211402;19;20867;-82
2023/07/10 02:24:08;;;;;;;9.45;5.70;;;;;;;22.11;95.25;99961.44;12235377;19;20018;-82
2023/07/10 02:28:09;;;;;;;12.13;5.53;;;;;;;22.04;95.75;99954.31;12208243;19;20010;-82
2023/07/10 02:32:11;;;;;;;12.83;5.87;;;;;;;22.02;96.76;99964.19;12228988;19;20007;-82
2023/07/10 02:36:13;;;;;;;10.82;6.32;;;;;;;21.98;96.73;99961.22;12235367;19;20006;-82
2023/07/10 02:40:15;;;;;;;10.38;5.35;;;;;;;21.92;97.70;99956.03;12212049;19;20010;-82
2023/07/10 02:44:17;;;;;;;11.15;6.07;;;;;;;21.85;98.38;99954.53;12244617;19;20014;-82
2023/07/10 02:48:19;;;;;;;10.50;5.47;;;;;;;21.77;98.92;99927.28;12238958;19;20019;-82
2023/07/10 02:52:21;;;;;;;9.05;5.78;;;;;;;21.67;100.00;99910.72;12220509;19;20018;-82
2023/07/10 02:56:23;;;;;;;11.10;6.10;;;;;;;21.59;100.00;99919.91;12246285;19;20003;-83
2023/07/10 03:00:24;;;;;;;10.23;5.87;;;;;;;21.57;100.00;99959.50;12243186;19;20022;-82
2023/07/10 03:04:26;;;;;;;11.93;6.00;;;;;;;21.56;100.00;99983.03;12216927;19;20006;-82
2023/07/10 03:08:29;;;;;;;8.77;5.20;;;;;;;21.60;100.00;99980.44;12243977;19;20649;-82
2023/07/10 03:12:31;;;;;;;13.98;6.80;;;;;;;21.68;100.00;100015.28;12243693;19;20467;-83
2023/07/10 03:16:32;;;;;;;10.23;6.00;;;;;;;21.75;100.00;100024.09;12222396;19;20035;-82
2023/07/10 03:20:39;;;;;;;11.90;6.90;;;;;;;21.71;100.00;100045.50;12231757;19;20045;-84
2023/07/10 03:24:40;;;;;;;12.77;7.03;;;;;;;21.55;100.00;100149.63;12219251;19;20034;-83
2023/07/10 03:28:42;;;;;;;12.90;6.78;;;;;;;21.50;100.00;100057.22;12198675;19;20926;-82
2023/07/10 03:32:44;;;;;;;12.05;6.93;;;;;;;21.44;100.00;100052.06;12225826;19;20078;-84
2023/07/10 03:36:46;;;;;;;11.77;6.07;;;;;;;21.36;100.00;100034.84;12228291;19;20014;-83
2023/07/10 03:40:56;;;;;;;14.52;6.20;;;;;;;21.24;100.00;100044.91;12199923;19;20793;-83
2023/07/10 03:44:57;;;;;;;13.07;6.22;;;;;;;21.15;100.00;100044.84;12221815;19;20090;-83
2023/07/10 03:48:59;;;;;;;11.48;6.40;;;;;;;21.08;100.00;100041.63;12221202;19;20014;-83
2023/07/10 03:53:01;;;;;;;13.27;6.43;;;;;;;21.02;100.00;100040.91;12202888;19;20534;-83
2023/07/10 03:57:03;;;;;;;10.57;6.00;;;;;;;21.01;100.00;100049.66;12221998;19;20018;-83
2023/07/10 04:01:04;;;;;;;9.50;6.43;;;;;;;20.97;100.00;100059.81;12223237;19;20010;-83
2023/07/10 04:05:06;;;;;;;13.00;5.90;;;;;;;20.88;100.00;100054.97;12198130;19;20113;-83
2023/07/10 04:09:08;;;;;;;12.13;6.60;;;;;;;20.82;100.00;100039.41;12220201;19;20018;-83
2023/07/10 04:13:10;;;;;;;11.70;6.00;;;;;;;20.79;100.00;100036.38;12201914;19;20024;-83
2023/07/10 04:17:14;;;;;;;13.48;7.18;;;;;;;20.82;100.00;100041.34;12224470;19;20023;-83
2023/07/10 04:21:23;;;;;;;10.77;5.72;;;;;;;20.88;100.00;100040.09;12218991;19;20117;-83
2023/07/10 04:25:24;;;;;;;13.07;7.05;;;;;;;20.92;100.00;100039.19;12196629;19;20019;-83
2023/07/10 04:29:26;;;;;;;11.90;6.03;;;;;;;20.91;100.00;100045.94;12221662;19;20062;-84
2023/07/10 04:33:28;;;;;;;10.20;7.00;;;;;;;20.97;100.00;100065.41;12223273;19;20003;-82
2023/07/10 04:37:30;;;;;;;10.45;5.97;;;;;;;21.11;100.00;100060.63;12192015;19;20015;-82
2023/07/10 04:41:31;;;;;;;13.20;6.30;;;;;;;21.18;100.00;100069.44;12217612;19;20098;-82
2023/07/10 04:45:33;;;;;;;8.65;6.25;;;;;;;21.19;100.00;100082.31;12213344;19;20099;-82
2023/07/10 04:49:35;;;;;;;12.85;7.30;;;;;;;21.20;100.00;100083.13;12191389;19;20014;-83
2023/07/10 04:53:37;;;;;;;12.52;6.15;;;;;;;21.20;100.00;100091.53;12218496;19;20002;-82
2023/07/10 04:57:38;;;;;;;14.23;6.95;;;;;;;21.20;100.00;100103.56;12217257;19;20031;-82
2023/07/10 05:01:40;;;;;;;11.82;6.40;;;;;;;21.25;100.00;100111.03;12192411;19;20006;-82
2023/07/10 05:05:53;;;;;;;14.80;6.53;;;;;;;21.30;100.00;100116.56;12212405;19;20003;-83
2023/07/10 05:09:55;;;;;;;13.65;7.20;;;;;;;21.39;100.00;100128.72;12215813;19;20023;-82
2023/07/10 05:13:57;;;;;;;11.80;6.70;;;;;;;21.44;100.00;100131.38;12201458;19;20014;-83
2023/07/10 05:17:59;;;;;;;14.13;7.20;;;;;;;21.55;100.00;100140.41;12211317;19;20053;-83
2023/07/10 05:22:01;;;;;;;13.43;7.20;;;;;;;21.65;100.00;100136.53;12214385;19;20302;-83
2023/07/10 05:26:10;;;;;;;14.35;7.28;;;;;;;21.76;100.00;100149.16;12193775;19;20034;-83
2023/07/10 05:30:11;;;;;;;13.65;6.60;;;;;;;21.87;100.00;100156.19;12212935;19;20368;-83
2023/07/10 05:34:15;;;;;;;10.63;7.20;;;;;;;22.00;100.00;100162.91;12205160;19;20016;-83
2023/07/10 05:38:17;;;;;;;18.48;7.97;;;;;;;22.13;100.00;100148.00;12236062;19;20784;-83
2023/07/10 05:42:19;;;;;;;12.25;8.43;;;;;;;22.25;100.00;100144.66;12216122;19;20016;-83
2023/07/10 05:47:15;;;;;;;;;;;;;;;;;;;;;
2023/07/10 05:51:47;;;;;;;19.83;11.05;;;;;;;22.40;100.00;100141.44;12229064;19;20018;-83
2023/07/10 05:56:01;;;;;;;20.15;11.60;;;;;;;22.45;100.00;100143.25;12231107;19;20660;-84
2023/07/10 06:00:08;;;;;;;16.05;10.35;;;;;;;22.50;100.00;100149.56;12224356;19;20010;-83
2023/07/10 06:04:12;;;;;;;21.67;13.52;;;;;;;22.61;100.00;100149.31;12196460;19;20007;-82
2023/07/10 06:08:14;;;;;;;21.67;13.18;;;;;;;22.71;100.00;100163.91;12214518;19;20010;-83
2023/07/10 06:12:16;;;;;;;26.08;15.07;;;;;;;22.81;100.00;100162.78;12209679;19;20018;-84
2023/07/10 06:16:18;;;;;;;21.17;14.73;;;;;;;22.90;100.00;100171.25;12198738;19;20476;-84
2023/07/10 06:20:21;;;;;;;23.25;15.20;;;;;;;23.01;100.00;100163.41;12212829;19;20136;-83
2023/07/10 06:24:24;;;;;;;24.67;15.13;;;;;;;23.15;100.00;100173.38;12186937;19;20078;-83
2023/07/10 06:28:28;;;;;;;19.83;15.37;;;;;;;23.38;100.00;100176.06;12196990;19;20000;-84
2023/07/10 06:32:31;;;;;;;32.17;20.50;;;;;;;23.59;100.00;100179.97;12214626;19;20014;-84
2023/07/10 06:36:33;;;;;;;27.88;20.50;;;;;;;23.67;100.00;100184.75;12220226;19;20351;-82
2023/07/10 06:40:35;;;;;;;30.43;20.97;;;;;;;23.73;100.00;100181.81;12192060;19;20473;-82
2023/07/10 06:44:37;;;;;;;31.47;21.83;;;;;;;23.81;100.00;100189.44;12215937;19;20030;-83
2023/07/10 06:48:39;;;;;;;32.20;21.83;;;;;;;23.82;100.00;100205.16;12214811;19;20011;-84
2023/07/10 06:52:43;;;;;;;31.25;21.33;;;;;;;23.96;100.00;100203.03;12193628;19;20067;-82
2023/07/10 06:56:45;;;;;;;31.08;20.85;;;;;;;24.14;100.00;100203.03;12220932;19;20017;-83
2023/07/10 07:00:51;;;;;;;32.17;22.45;;;;;;;24.27;100.00;100202.03;12216977;19;20010;-82
2023/07/10 07:04:54;;;;;;;28.85;19.98;;;;;;;24.39;100.00;100199.38;12192181;19;20023;-81
2023/07/10 07:08:59;;;;;;;29.53;20.87;;;;;;;24.55;100.00;100196.91;12234986;19;20014;-82
2023/07/10 07:13:33;;;;;;;31.30;20.60;;;;;;;24.70;100.00;100198.34;12214858;19;20789;-82
2023/07/10 07:17:37;;;;;;;30.30;20.08;;;;;;;24.81;100.00;100204.44;12214347;19;20007;-83
2023/07/10 07:21:41;;;;;;;;;;;;;;;24.90;100.00;100205.28;12210274;19;20007;-82
2023/07/10 07:25:43;;;;;;;27.95;20.05;;;;;;;24.99;100.00;100191.97;12198018;19;19922;-82
2023/07/10 07:29:50;;;;;;;28.58;20.85;;;;;;;25.04;100.00;100196.56;12219399;19;20479;-82
2023/07/10 07:33:54;;;;;;;32.45;21.42;;;;;;;25.04;100.00;100188.94;12229547;19;20036;-82
2023/07/10 07:37:56;;;;;;;28.63;20.40;;;;;;;25.23;100.00;100194.22;12200409;19;20007;-83
2023/07/10 07:41:59;;;;;;;25.52;19.83;;;;;;;25.43;100.00;100201.91;12223558;19;20007;-83
2023/07/10 07:46:02;;;;;;;23.75;18.60;;;;;;;25.65;100.00;100194.31;12232802;19;20014;-83
2023/07/10 07:50:04;;;;;;;30.88;22.67;;;;;;;25.86;97.04;100200.00;12207162;19;20355;-82
2023/07/10 07:54:12;;;;;;;29.35;20.35;;;;;;;25.85;97.45;100204.84;12234068;19;20027;-82
2023/07/10 07:58:13;;;;;;;29.48;21.02;;;;;;;25.93;96.51;100205.91;12202724;19;20018;-84
2023/07/10 08:02:15;;;;;;;28.52;20.55;;;;;;;26.15;94.79;100201.94;12223073;19;20450;-82
2023/07/10 08:06:18;;;;;;;29.52;21.55;;;;;;;26.29;92.59;100207.28;12227433;19;20014;-82
2023/07/10 08:10:19;;;;;;;31.75;21.95;;;;;;;26.44;91.56;100217.94;12202202;19;20006;-83
2023/07/10 08:14:21;;;;;;;28.80;20.40;;;;;;;26.52;90.82;100211.41;12228966;19;20014;-83
2023/07/10 08:18:24;;;;;;;29.17;21.55;;;;;;;26.77;89.28;100209.50;12231731;19;20029;-82
2023/07/10 08:22:25;;;;;;;28.17;21.45;;;;;;;27.05;86.67;100214.50;12215380;19;21177;-82
2023/07/10 08:26:31;;;;;;;27.55;21.00;;;;;;;27.01;83.13;100213.56;12228640;19;20026;-83
2023/07/10 08:30:33;;;;;;;;;;;;;;;27.13;83.15;100215.56;12224590;19;20021;-82
2023/07/10 08:34:34;;;;;;;32.50;19.50;;;;;;;27.47;80.90;100220.00;12201105;19;20257;-81
2023/07/10 08:38:40;;;;;;;28.33;19.38;;;;;;;27.58;78.99;100218.34;12210848;19;20042;-82
2023/07/10 08:42:42;;;;;;;25.83;18.35;;;;;;;27.78;79.29;100216.56;12217385;19;20040;-83
2023/07/10 08:46:45;;;;;;;28.27;19.77;;;;;;;28.21;76.29;100217.91;12194163;19;20014;-82
2023/07/10 08:50:47;;;;;;;26.15;19.15;;;;;;;28.48;73.98;100224.78;12212044;19;20010;-84
2023/07/10 08:54:49;;;;;;;26.50;19.48;;;;;;;28.34;73.60;100213.00;12225860;19;20460;-83
2023/07/10 08:58:55;;;;;;;26.48;18.05;;;;;;;28.42;73.67;100217.72;12198154;19;20021;-83
2023/07/10 09:03:06;;;;;;;19.13;14.70;;;;;;;28.69;70.48;100215.25;12217678;19;20066;-83
2023/07/10 09:07:10;;;;;;;17.58;14.88;;;;;;;29.15;67.02;100216.53;12191632;19;20067;-82
2023/07/10 09:11:14;;;;;;;21.05;16.23;;;;;;;29.36;65.61;100216.25;12218756;19;20007;-83
2023/07/10 09:15:25;;;;;;;20.13;16.02;;;;;;;29.57;65.43;100215.97;12227153;19;20011;-82
2023/07/10 09:19:28;;;;;;;19.50;15.77;;;;;;;29.54;64.18;100228.06;12196536;19;20020;-82
2023/07/10 09:23:33;;;;;;;21.63;15.27;;;;;;;29.41;64.64;100230.16;12217499;19;20010;-83
2023/07/10 09:27:36;;;;;;;19.08;14.65;;;;;;;29.30;64.73;100214.88;12218720;19;20014;-82
2023/07/10 09:31:49;;;;;;;18.60;14.75;;;;;;;28.93;65.26;100229.28;12198045;19;20023;-85
2023/07/10 09:35:51;;;;;;;18.92;15.55;;;;;;;28.72;67.66;100231.53;12218646;19;20006;-82
2023/07/10 09:39:52;;;;;;;16.05;12.98;;;;;;;29.14;66.43;100216.88;12220722;19;20022;-83
2023/07/10 09:44:00;;;;;;;19.73;13.98;;;;;;;29.47;64.84;100211.66;12202607;19;20011;-84
2023/07/10 09:48:09;;;;;;;12.90;11.55;;;;;;;29.47;63.12;100214.47;12219634;19;20493;-82
2023/07/10 09:52:37;;;;;;;15.63;11.23;;;;;;;29.23;63.30;100223.19;12206430;19;20138;-82
2023/07/10 09:56:39;;;;;;;14.02;10.43;;;;;;;29.27;63.39;100212.75;12222838;19;20010;-82
2023/07/10 10:00:45;;;;;;;13.65;10.77;;;;;;;29.29;62.81;100213.22;12221378;19;20429;-83
2023/07/10 10:04:52;;;;;;;13.10;10.65;;;;;;;29.71;61.53;100210.63;12200846;19;20010;-83
2023/07/10 10:08:55;;;;;;;17.77;10.07;;;;;;;29.87;59.36;100195.59;12219916;19;20365;-84
2023/07/10 10:13:14;;;;;;;12.70;9.93;;;;;;;30.39;57.62;100197.94;12223388;19;20007;-83
2023/07/10 10:17:20;;;;;;;15.82;9.27;;;;;;;30.71;56.24;100183.53;12199978;19;20015;-82
2023/07/10 10:21:23;;;;;;;12.27;9.75;;;;;;;30.86;53.92;100185.50;12220783;19;20104;-82
2023/07/10 10:25:36;;;;;;;14.68;10.40;;;;;;;31.02;52.41;100190.22;12190899;19;20004;-82
2023/07/10 10:29:46;;;;;;;11.20;9.35;;;;;;;30.16;56.10;100179.97;12217816;19;20010;-83
2023/07/10 10:34:02;;;;;;;11.85;8.85;;;;;;;30.23;55.87;100174.47;12218359;19;20007;-83
2023/07/10 10:38:35;;;;;;;14.05;8.20;;;;;;;30.81;52.79;100171.56;12199218;19;20014;-83
2023/07/10 10:42:49;;;;;;;11.35;8.27;;;;;;;31.07;52.03;100167.16;12224277;19;20017;-82
2023/07/10 10:47:17;;;;;;;10.55;8.45;;;;;;;31.12;50.14;100161.16;12198478;19;20016;-83
2023/07/10 10:51:42;;;;;;;12.68;8.23;;;;;;;30.93;51.13;100161.22;12220060;19;20015;-84
2023/07/10 10:56:10;;;;;;;11.13;8.23;;;;;;;30.86;49.03;100162.72;12194072;19;20014;-84
2023/07/10 11:00:31;;;;;;;9.43;7.63;;;;;;;30.96;47.94;100151.91;12217246;19;20497;-83
2023/07/10 11:04:38;;;;;;;10.82;8.52;;;;;;;31.24;47.53;100160.94;12197615;19;20010;-83
2023/07/10 11:08:45;;;;;;;10.38;7.95;;;;;;;31.07;48.54;100144.38;12229411;19;20011;-84
2023/07/10 11:12:47;;;;;;;8.77;7.80;;;;;;;31.14;49.21;100143.69;12232710;19;20014;-84
2023/07/10 11:16:51;;;;;;;12.70;8.07;;;;;;;31.08;49.29;100129.78;12206894;19;20052;-84
2023/07/10 11:20:54;;;;;;;10.38;9.18;;;;;;;31.76;47.58;100138.56;12226542;19;19999;-84
2023/07/10 11:24:56;;;;;;;10.00;8.80;;;;;;;31.99;48.52;100127.09;12228960;19;20351;-83
2023/07/10 11:29:00;;;;;;;9.70;8.07;;;;;;;31.43;47.05;100133.59;12202191;19;20025;-83
2023/07/10 11:33:17;;;;;;;11.70;8.38;;;;;;;30.42;49.74;100134.66;12229172;19;20078;-80
2023/07/10 11:37:49;;;;;;;12.40;8.55;;;;;;;29.61;52.39;100136.53;12201799;19;20010;-83
2023/07/10 11:41:51;;;;;;;13.60;8.60;;;;;;;29.73;53.65;100140.09;12215711;19;20010;-81
2023/07/10 11:46:02;;;;;;;10.02;8.43;;;;;;;30.15;51.19;100144.22;12221203;19;20010;-81
2023/07/10 11:50:12;;;;;;;10.98;7.70;;;;;;;30.77;49.10;100136.53;12197002;19;20019;-82
2023/07/10 11:54:34;;;;;;;11.68;8.13;;;;;;;31.43;46.58;100136.44;12222702;19;20020;-82
2023/07/10 11:58:37;;;;;;;12.53;7.37;;;;;;;31.78;44.79;100127.59;12202521;19;20010;-82
2023/07/10 12:02:48;;;;;;;11.13;8.07;;;;;;;32.20;45.10;100115.13;12224238;19;20011;-82
2023/07/10 12:06:51;;;;;;;10.23;7.68;;;;;;;32.57;43.28;100118.03;12222994;19;20097;-82
2023/07/10 12:10:53;;;;;;;11.23;8.05;;;;;;;33.01;42.22;100127.81;12205326;19;20003;-79
2023/07/10 12:14:54;;;;;;;;;;;;;;;32.96;41.01;100131.00;12233127;19;20013;-82
2023/07/10 12:19:02;;;;;;;9.73;7.03;;;;;;;32.45;40.93;100121.13;12225361;19;19920;-82
2023/07/10 12:23:09;;;;;;;20.23;7.93;;;;;;;32.96;40.32;100108.16;12200940;19;20018;-81
2023/07/10 12:27:11;;;;;;;8.45;7.07;;;;;;;34.05;37.90;100095.03;12222235;19;20006;-81
2023/07/10 12:31:16;;;;;;;11.30;7.22;;;;;;;34.92;36.87;100094.84;12199561;19;20014;-82
2023/07/10 12:35:37;;;;;;;12.13;6.95;;;;;;;35.43;35.31;100080.47;12214945;19;20413;-82
2023/07/10 12:39:40;;;;;;;8.02;6.70;;;;;;;35.98;32.82;100092.19;12219455;19;20006;-82
2023/07/10 12:43:47;;;;;;;9.10;6.72;;;;;;;35.86;33.02;100077.50;12197714;19;20091;-82
2023/07/10 12:48:18;;;;;;;11.55;6.32;;;;;;;35.42;32.49;100078.84;12219573;19;20070;-83
2023/07/10 12:52:26;;;;;;;8.15;7.18;;;;;;;34.33;34.91;100077.16;12200493;19;20007;-84
2023/07/10 12:56:35;;;;;;;11.95;7.00;;;;;;;33.29;36.69;100081.56;12221619;19;20024;-84
2023/07/10 13:00:45;;;;;;;8.27;6.32;;;;;;;32.38;38.14;100086.81;12219240;19;20018;-83
2023/07/10 13:04:58;;;;;;;8.07;5.97;;;;;;;32.80;38.21;100089.28;12195740;19;20492;-82
2023/07/10 13:09:03;;;;;;;10.13;6.53;;;;;;;33.78;36.61;100077.34;12221147;19;20066;-82
2023/07/10 13:13:14;;;;;;;7.10;6.32;;;;;;;35.57;33.54;100066.13;12220010;19;20014;-82
2023/07/10 13:17:19;;;;;;;7.95;6.68;;;;;;;37.25;31.93;100058.56;12220385;19;20010;-82
2023/07/10 13:21:23;;;;;;;8.45;6.40;;;;;;;38.14;27.74;100056.72;12219297;19;20014;-81
2023/07/10 13:25:30;;;;;;;6.75;5.32;;;;;;;39.09;27.64;100047.81;12195101;19;20472;-78
2023/07/10 13:29:31;;;;;;;6.38;5.40;;;;;;;40.19;25.05;100043.97;12215293;19;20011;-82
2023/07/10 13:33:35;;;;;;;11.70;4.15;;;;;;;40.57;24.45;100051.31;12217090;19;20010;-80
2023/07/10 13:37:37;;;;;;;5.43;4.93;;;;;;;41.08;23.86;100051.72;12190048;19;20010;-80
2023/07/10 13:41:39;;;;;;;6.45;4.60;;;;;;;41.59;22.84;100043.31;12215596;19;20398;-82
2023/07/10 13:45:42;;;;;;;5.45;4.93;;;;;;;40.14;23.43;100041.59;12220618;19;20023;-82
2023/07/10 13:49:44;;;;;;;7.32;6.40;;;;;;;38.01;26.21;100048.63;12195258;19;20500;-81
2023/07/10 13:53:46;;;;;;;7.85;6.72;;;;;;;36.76;28.30;100047.06;12217097;19;20066;-84
2023/07/10 13:57:48;;;;;;;6.70;5.90;;;;;;;37.42;27.21;100040.28;12215564;19;20002;-80
2023/07/10 14:01:49;;;;;;;8.40;6.28;;;;;;;38.70;26.62;100029.13;12197992;19;20007;-81
2023/07/10 14:05:54;;;;;;;9.23;7.88;;;;;;;39.92;26.05;100028.88;12221612;19;20385;-81
2023/07/10 14:09:58;;;;;;;10.45;7.00;;;;;;;40.64;25.69;100036.75;12226635;19;20322;-83
2023/07/10 14:14:01;;;;;;;8.38;7.53;;;;;;;41.00;24.44;100039.53;12194886;19;20003;-83
2023/07/10 14:18:12;;;;;;;7.43;6.72;;;;;;;41.86;23.75;100028.47;12217547;19;20014;-82
2023/07/10 14:22:14;;;;;;;8.25;7.32;;;;;;;41.04;24.53;100033.63;12194490;19;20344;-82
2023/07/10 14:26:23;;;;;;;8.65;6.18;;;;;;;38.93;25.47;100045.59;12216751;19;20011;-80
2023/07/10 14:30:27;;;;;;;13.35;6.45;;;;;;;39.20;25.17;100033.19;12218013;19;20013;-82
2023/07/10 14:34:28;;;;;;;7.00;6.20;;;;;;;38.91;25.49;100033.72;12193766;19;20017;-82
2023/07/10 14:38:30;;;;;;;9.05;6.57;;;;;;;38.04;26.72;100021.06;12221554;19;20017;-80
2023/07/10 14:42:32;;;;;;;8.20;6.18;;;;;;;38.95;25.63;100022.13;12223130;19;20002;-81
2023/07/10 14:46:37;;;;;;;5.03;4.30;;;;;;;39.75;23.01;100011.53;12203748;19;20015;-80
2023/07/10 14:50:40;;;;;;;6.40;4.40;;;;;;;39.92;21.30;100008.69;12227036;19;20356;-84
2023/07/10 14:54:43;;;;;;;6.18;4.32;;;;;;;38.29;23.05;100014.97;12231994;19;20007;-80
2023/07/10 14:58:45;;;;;;;4.40;4.00;;;;;;;38.96;22.23;100007.28;12204686;19;20011;-83
2023/07/10 15:02:48;;;;;;;5.38;4.20;;;;;;;39.61;21.74;100000.28;12226489;19;20010;-82
2023/07/10 15:06:50;;;;;;;5.68;4.35;;;;;;;39.48;21.67;100002.22;12226091;19;20007;-82
2023/07/10 15:10:52;;;;;;;6.07;4.40;;;;;;;39.00;22.19;100003.50;12203677;19;20010;-82
2023/07/10 15:14:54;;;;;;;7.28;4.32;;;;;;;38.59;22.23;99993.13;12229920;19;20027;-82
2023/07/10 15:18:58;;;;;;;5.40;4.32;;;;;;;40.06;21.20;99999.72;12224015;19;20491;-81
2023/07/10 15:23:00;;;;;;;7.15;4.65;;;;;;;40.93;20.74;100002.13;12204872;19;20483;-81
2023/07/10 15:27:02;;;;;;;6.65;4.50;;;;;;;40.20;21.30;99996.53;12224208;19;20014;-82
2023/07/10 15:31:09;;;;;;;5.43;4.45;;;;;;;38.29;22.21;99986.19;12226317;19;20464;-81
2023/07/10 15:35:16;;;;;;;7.95;4.50;;;;;;;36.99;23.13;99996.81;12211317;19;20074;-79
2023/07/10 15:39:18;;;;;;;6.03;5.05;;;;;;;35.75;23.81;99995.22;12223926;19;20003;-81
2023/07/10 15:43:26;;;;;;;5.30;3.92;;;;;;;34.90;24.90;99987.69;12197454;19;20014;-81
2023/07/10 15:47:28;;;;;;;7.57;4.45;;;;;;;34.78;25.46;99976.66;12226856;19;20022;-81
2023/07/10 15:51:30;;;;;;;6.85;4.10;;;;;;;34.44;25.63;99977.84;12225609;19;20027;-81
2023/07/10 15:55:34;;;;;;;7.22;4.80;;;;;;;34.10;26.49;99980.28;12200341;19;20010;-81
2023/07/10 15:59:36;;;;;;;8.32;4.88;;;;;;;33.60;27.40;99985.84;12223205;19;20414;-80
2023/07/10 16:03:38;;;;;;;6.45;4.38;;;;;;;33.19;27.55;99976.63;12222828;19;20460;-82
2023/07/10 16:07:39;;;;;;;7.30;3.90;;;;;;;32.85;28.12;99985.38;12202513;19;20014;-81
2023/07/10 16:11:41;;;;;;;;;;;;;;;32.82;27.70;99978.41;12224554;19;20711;-82
2023/07/10 16:15:43;;;;;;;5.80;3.58;;;;;;;32.76;28.08;99977.16;12222847;19;19962;-81
2023/07/10 16:19:45;;;;;;;5.22;4.00;;;;;;;32.74;28.34;99967.34;12198209;19;20010;-82
2023/07/10 16:23:48;;;;;;;6.32;4.68;;;;;;;32.69;28.56;99971.38;12220932;19;20944;-82
2023/07/10 16:27:49;;;;;;;6.40;4.18;;;;;;;32.51;29.38;99974.09;12218188;19;20015;-82
2023/07/10 16:31:52;;;;;;;6.45;4.20;;;;;;;32.57;29.11;99971.69;12194911;19;20040;-80
2023/07/10 16:35:57;;;;;;;6.93;4.20;;;;;;;32.47;28.78;99975.28;12221757;19;20018;-82
2023/07/10 16:39:59;;;;;;;6.25;4.20;;;;;;;32.25;29.41;99969.38;12220998;19;20017;-81
2023/07/10 16:44:01;;;;;;;5.88;3.50;;;;;;;32.12;29.99;99979.41;12194223;19;20026;-82
2023/07/10 16:48:04;;;;;;;;;;;;;;;32.02;30.53;99975.25;12221188;19;20010;-83
2023/07/10 16:52:10;;;;;;;7.68;3.38;;;;;;;31.97;30.43;99975.59;12214412;19;20250;-81
2023/07/10 16:56:15;;;;;;;7.85;3.80;;;;;;;31.82;30.38;99968.91;12218441;19;20022;-81
2023/07/10 17:00:21;;;;;;;6.43;3.78;;;;;;;31.73;30.72;99968.38;12217252;19;20015;-81
2023/07/10 17:04:23;;;;;;;8.38;4.45;;;;;;;31.56;31.27;99978.34;12200395;19;20010;-80
2023/07/10 17:08:28;;;;;;;;;;;;;;;31.37;30.97;99973.66;12217959;19;20006;-81
2023/07/10 17:12:30;;;;;;;8.77;3.75;;;;;;;31.32;31.66;99986.19;12220126;19;19918;-81
2023/07/10 17:16:32;;;;;;;;;;;;;;;31.07;31.33;99985.00;12195964;19;20014;-81
2023/07/10 17:20:34;;;;;;;5.15;3.13;;;;;;;30.92;30.94;99977.47;12215507;19;19915;-81
2023/07/10 17:24:36;;;;;;;5.63;3.50;;;;;;;30.87;31.21;99979.44;12217875;19;20358;-82
2023/07/10 17:28:39;;;;;;;;;;;;;;;30.77;30.96;99977.22;12193207;19;20025;-81
2023/07/10 17:32:41;;;;;;;5.95;3.97;;;;;;;30.73;31.26;99982.03;12212828;19;19926;-81
2023/07/10 17:36:43;;;;;;;7.10;3.45;;;;;;;30.63;31.64;99977.81;12219385;19;20015;-80
2023/07/10 17:40:46;;;;;;;;;;;;;;;30.47;31.50;99977.16;12196559;19;20010;-82
2023/07/10 17:44:48;;;;;;;4.82;3.28;;;;;;;30.37;31.73;99978.63;12226140;19;19918;-80
2023/07/10 17:48:50;;;;;;;6.03;3.58;;;;;;;30.22;31.98;99973.84;12242782;19;20475;-81
2023/07/10 17:52:52;;;;;;;11.55;3.25;;;;;;;30.10;32.11;99976.84;12197633;19;20528;-81
2023/07/10 17:56:54;;;;;;;8.38;3.45;;;;;;;30.01;32.31;99971.41;12217953;19;20010;-82
2023/07/10 18:00:56;;;;;;;5.18;3.55;;;;;;;29.91;32.17;99987.06;12216018;19;20337;-83
2023/07/10 18:04:58;;;;;;;5.38;3.35;;;;;;;29.79;32.42;99990.09;12197848;19;20341;-83
2023/07/10 18:09:00;;;;;;;5.68;3.08;;;;;;;29.65;32.48;99981.28;12214837;19;19998;-83
2023/07/10 18:13:02;;;;;;;5.40;2.97;;;;;;;29.57;32.24;99982.28;12219512;19;20007;-82
2023/07/10 18:17:19;;;;;;;6.80;3.17;;;;;;;29.40;32.60;99994.94;12196968;19;20020;-82
2023/07/10 18:21:22;;;;;;;6.65;3.70;;;;;;;29.17;32.52;99997.66;12216961;19;20010;-81
2023/07/10 18:25:23;;;;;;;6.22;3.20;;;;;;;29.08;31.87;99995.84;12194157;19;20014;-82
2023/07/10 18:29:25;;;;;;;5.68;3.28;;;;;;;28.94;32.27;100003.16;12214785;19;20028;-82
2023/07/10 18:33:30;;;;;;;7.07;3.50;;;;;;;28.85;32.57;100003.38;12218769;19;20473;-81
2023/07/10 18:37:32;;;;;;;5.93;3.20;;;;;;;28.74;32.76;100000.28;12193249;19;20516;-81
2023/07/10 18:41:34;;;;;;;21.30;3.35;;;;;;;28.63;32.94;99999.22;12218031;19;20011;-81